Time;durP1;ratioP1;P1;durP2;ratioP2;P2;SDS_P1;SDS_P2;PMS_P1;PMS_P2;Temp;Humidity;BMP_temperature;BMP_pressure;BME280_temperature;BME280_humidity;BME280_pressure;Samples;Min_cycle;Max_cycle;Signal;HPM_P1;HPM_P2
2022/03/20 00:01:02;;;;;;;23.02;12.35;;;;;;;-146.84;100.00;65060.63;4992343;28;20782;-77
2022/03/20 00:03:29;;;;;;;24.83;12.75;;;;;;;-146.84;100.00;65060.63;5005528;28;20116;-76
2022/03/20 00:05:55;;;;;;;30.98;13.82;;;;;;;-146.84;100.00;65060.63;4991064;28;20069;-75
2022/03/20 00:08:21;;;;;;;25.15;14.07;;;;;;;-146.84;100.00;65060.63;5025558;28;20048;-78
2022/03/20 00:10:49;;;;;;;30.95;13.63;;;;;;;-146.84;100.00;65060.63;5009049;28;20079;-76
2022/03/20 00:13:17;;;;;;;28.52;14.27;;;;;;;-146.84;100.00;65060.63;5004679;28;20032;-77
2022/03/20 00:15:44;;;;;;;27.48;14.23;;;;;;;-146.84;100.00;65060.63;4990164;28;20037;-78
2022/03/20 00:18:11;;;;;;;27.88;15.60;;;;;;;-146.84;100.00;65060.63;5007659;28;20045;-78
2022/03/20 00:20:43;;;;;;;29.38;15.52;;;;;;;-146.84;100.00;65060.63;4991361;28;20088;-77
2022/03/20 00:23:10;;;;;;;33.28;15.10;;;;;;;-146.84;100.00;65060.63;5008105;28;20384;-78
2022/03/20 00:25:38;;;;;;;31.73;16.02;;;;;;;-146.84;100.00;65060.63;4999613;28;20046;-77
2022/03/20 00:28:04;;;;;;;30.95;15.52;;;;;;;-146.84;100.00;65060.63;4991240;28;20034;-76
2022/03/20 00:30:30;;;;;;;32.83;16.40;;;;;;;-146.84;100.00;65060.63;4994147;28;20030;-78
2022/03/20 00:32:56;;;;;;;36.17;17.08;;;;;;;-146.84;100.00;65060.63;5011331;28;20025;-77
2022/03/20 00:35:21;;;;;;;31.20;16.58;;;;;;;-146.84;100.00;65060.63;4997357;28;20955;-76
2022/03/20 00:37:47;;;;;;;33.03;17.77;;;;;;;-146.84;100.00;65060.63;4980504;28;20081;-77
2022/03/20 00:40:14;;;;;;;34.35;17.88;;;;;;;-146.84;100.00;65060.63;5006925;28;20558;-78
2022/03/20 00:42:40;;;;;;;36.67;18.30;;;;;;;-146.84;100.00;65060.63;4986189;28;20117;-78
2022/03/20 00:45:07;;;;;;;34.38;17.80;;;;;;;-146.84;100.00;65060.63;4984746;28;20046;-78
2022/03/20 00:47:32;;;;;;;41.00;19.65;;;;;;;-146.84;100.00;65060.63;4990709;28;20073;-77
2022/03/20 00:49:58;;;;;;;40.65;18.98;;;;;;;-146.84;100.00;65060.63;4996873;28;20038;-78
2022/03/20 00:52:24;;;;;;;34.33;18.10;;;;;;;-146.84;100.00;65060.63;5029862;28;20026;-78
2022/03/20 00:54:49;;;;;;;36.65;19.42;;;;;;;-146.84;100.00;65060.63;4982044;28;20120;-79
2022/03/20 00:57:15;;;;;;;40.60;19.63;;;;;;;-146.84;100.00;65060.63;5017724;28;20036;-77
2022/03/20 00:59:42;;;;;;;36.67;20.92;;;;;;;-146.84;100.00;65060.63;4999152;28;20030;-78
2022/03/20 01:02:11;;;;;;;34.90;19.23;;;;;;;-146.84;100.00;65060.63;4993947;28;20061;-78
2022/03/20 01:04:37;;;;;;;35.08;19.63;;;;;;;-146.84;100.00;65060.63;5017070;28;20030;-77
2022/03/20 01:07:04;;;;;;;40.30;19.65;;;;;;;-146.84;100.00;65060.63;5010951;28;20112;-78
2022/03/20 01:09:30;;;;;;;34.70;20.08;;;;;;;-146.84;100.00;65060.63;5015782;28;20062;-78
2022/03/20 01:11:57;;;;;;;38.72;20.02;;;;;;;-146.84;100.00;65060.63;5001204;28;20125;-76
2022/03/20 01:14:25;;;;;;;36.95;19.98;;;;;;;-146.84;100.00;65060.63;5000188;28;20149;-78
2022/03/20 01:16:52;;;;;;;38.50;21.10;;;;;;;-146.84;100.00;65060.63;5026281;28;20069;-78
2022/03/20 01:19:17;;;;;;;39.50;20.85;;;;;;;-146.84;100.00;65060.63;4996963;28;20044;-78
2022/03/20 01:21:43;;;;;;;35.13;20.73;;;;;;;-146.84;100.00;65060.63;4996985;28;20038;-78
2022/03/20 01:24:09;;;;;;;40.63;22.02;;;;;;;-146.84;100.00;65060.63;4994570;28;20124;-78
2022/03/20 01:26:36;;;;;;;37.20;19.50;;;;;;;-146.84;100.00;65060.63;5002323;28;20033;-76
2022/03/20 01:29:07;;;;;;;35.97;20.33;;;;;;;-146.84;100.00;65060.63;5013781;28;20121;-77
2022/03/20 01:31:34;;;;;;;38.88;20.92;;;;;;;-146.84;100.00;65060.63;5012572;28;20034;-78
2022/03/20 01:34:00;;;;;;;33.90;19.70;;;;;;;-146.84;100.00;65060.63;4996512;28;20045;-77
2022/03/20 01:36:27;;;;;;;34.30;18.95;;;;;;;-146.84;100.00;65060.63;4996801;28;20121;-78
2022/03/20 01:38:53;;;;;;;34.80;20.15;;;;;;;-146.84;100.00;65060.63;5010224;28;20027;-76
2022/03/20 01:41:19;;;;;;;36.75;19.88;;;;;;;-146.84;100.00;65060.63;4997700;28;20037;-77
2022/03/20 01:43:53;;;;;;;32.65;19.83;;;;;;;-146.84;100.00;65060.63;4996284;28;20040;-81
2022/03/20 01:46:19;;;;;;;35.92;20.15;;;;;;;-146.84;100.00;65060.63;5010146;28;20088;-78
2022/03/20 01:48:45;;;;;;;34.33;19.52;;;;;;;-146.84;100.00;65060.63;4998742;28;20052;-77
2022/03/20 01:51:13;;;;;;;29.65;18.17;;;;;;;-146.84;100.00;65060.63;4994975;28;20026;-78
2022/03/20 01:53:39;;;;;;;35.75;19.50;;;;;;;-146.84;100.00;65060.63;5008758;28;20041;-79
2022/03/20 01:56:05;;;;;;;33.22;18.67;;;;;;;-146.84;100.00;65060.63;5027803;28;20391;-78
2022/03/20 01:58:32;;;;;;;33.15;18.17;;;;;;;-146.84;100.00;65060.63;4995254;28;20037;-78
2022/03/20 02:00:58;;;;;;;31.83;18.67;;;;;;;-146.84;100.00;65060.63;4992869;28;20484;-79
2022/03/20 02:03:24;;;;;;;30.65;19.27;;;;;;;-146.84;100.00;65060.63;5011692;28;20128;-77
2022/03/20 02:05:50;;;;;;;31.42;18.33;;;;;;;-146.84;100.00;65060.63;5010470;28;20145;-77
2022/03/20 02:08:16;;;;;;;34.15;18.75;;;;;;;-146.84;100.00;65060.63;4995704;28;20069;-79
2022/03/20 02:10:43;;;;;;;34.47;19.55;;;;;;;-146.84;100.00;65060.63;5011652;28;20250;-79
2022/03/20 02:13:08;;;;;;;36.65;19.08;;;;;;;-146.84;100.00;65060.63;5009658;28;20041;-77
2022/03/20 02:15:36;;;;;;;34.67;19.80;;;;;;;-146.84;100.00;65060.63;4996830;28;20026;-79
2022/03/20 02:18:03;;;;;;;33.45;20.15;;;;;;;-146.84;100.00;65060.63;4994265;28;20049;-78
2022/03/20 02:20:29;;;;;;;39.10;20.15;;;;;;;-146.84;100.00;65060.63;5010988;28;20056;-78
2022/03/20 02:22:55;;;;;;;34.58;20.40;;;;;;;-146.84;100.00;65060.63;4993611;28;20046;-79
2022/03/20 02:25:22;;;;;;;34.33;19.80;;;;;;;-146.84;100.00;65060.63;4997011;28;20081;-78
2022/03/20 02:27:48;;;;;;;33.58;19.50;;;;;;;-146.84;100.00;65060.63;4996890;28;20057;-78
2022/03/20 02:30:16;;;;;;;34.53;19.75;;;;;;;-146.84;100.00;65060.63;4977757;28;20096;-78
2022/03/20 02:32:47;;;;;;;31.50;18.77;;;;;;;-146.84;100.00;65060.63;5002248;28;20072;-79
2022/03/20 02:35:15;;;;;;;33.13;20.48;;;;;;;-146.84;100.00;65060.63;4986981;28;20034;-77
2022/03/20 02:37:46;;;;;;;35.65;19.77;;;;;;;-146.84;100.00;65060.63;4973195;28;20518;-77
2022/03/20 02:40:13;;;;;;;35.38;20.58;;;;;;;-146.84;100.00;65060.63;4981247;28;20057;-78
2022/03/20 02:42:40;;;;;;;29.92;19.27;;;;;;;-146.84;100.00;65060.63;4982200;28;20538;-76
2022/03/20 02:45:12;;;;;;;33.13;18.60;;;;;;;-146.84;100.00;65060.63;4997154;28;20033;-78
2022/03/20 02:47:45;;;;;;;35.83;19.85;;;;;;;-146.84;100.00;65060.63;4995410;28;20038;-78
2022/03/20 02:50:27;;;;;;;36.78;19.05;;;;;;;-146.84;100.00;65060.63;4992854;28;20033;-79
2022/03/20 02:52:58;;;;;;;30.90;18.27;;;;;;;-146.84;100.00;65060.63;4980359;28;20137;-76
2022/03/20 02:55:24;;;;;;;35.13;18.48;;;;;;;-146.84;100.00;65060.63;5001657;28;20101;-76
2022/03/20 02:57:52;;;;;;;34.72;19.70;;;;;;;-146.84;100.00;65060.63;5026399;28;20125;-77
2022/03/20 03:00:21;;;;;;;35.30;18.77;;;;;;;-146.84;100.00;65060.63;4986071;28;20809;-77
2022/03/20 03:02:48;;;;;;;32.50;18.77;;;;;;;-146.84;100.00;65060.63;4990884;28;20049;-77
2022/03/20 03:05:15;;;;;;;36.95;18.45;;;;;;;-146.84;100.00;65060.63;5010140;28;20087;-76
2022/03/20 03:13:18;;;;;;;35.20;19.45;;;;;;;-146.84;100.00;65060.63;5009609;28;20385;-77
2022/03/20 03:15:44;;;;;;;42.00;20.23;;;;;;;-146.84;100.00;65060.63;5013550;28;20042;-77
2022/03/20 03:18:10;;;;;;;32.72;19.15;;;;;;;-146.84;100.00;65060.63;4991571;28;20037;-82
2022/03/20 03:20:37;;;;;;;38.80;19.45;;;;;;;-146.84;100.00;65060.63;4983726;28;20049;-78
2022/03/20 03:23:03;;;;;;;32.58;18.80;;;;;;;-146.84;100.00;65060.63;5020572;28;20500;-79
2022/03/20 03:25:32;;;;;;;39.15;20.30;;;;;;;-146.84;100.00;65060.63;4976492;28;20042;-78
2022/03/20 03:27:59;;;;;;;33.53;19.73;;;;;;;-146.84;100.00;65060.63;4994140;28;20088;-78
2022/03/20 03:30:25;;;;;;;36.17;20.42;;;;;;;-146.84;100.00;65060.63;5012207;28;20420;-78
2022/03/20 03:32:51;;;;;;;34.58;19.25;;;;;;;-146.84;100.00;65060.63;4993476;28;20708;-78
2022/03/20 03:38:02;;;;;;;31.67;20.42;;;;;;;-146.84;100.00;65060.63;5012344;28;20073;-78
2022/03/20 03:40:28;;;;;;;35.05;20.13;;;;;;;-146.84;100.00;65060.63;5007404;28;20479;-78
2022/03/20 03:42:54;;;;;;;36.13;20.63;;;;;;;-146.84;100.00;65060.63;5012031;28;20041;-76
2022/03/20 03:45:22;;;;;;;36.10;20.02;;;;;;;-146.84;100.00;65060.63;4979087;28;20493;-79
2022/03/20 03:47:49;;;;;;;32.08;19.13;;;;;;;-146.84;100.00;65060.63;5012945;28;20042;-79
2022/03/20 03:50:14;;;;;;;34.22;20.35;;;;;;;-146.84;100.00;65060.63;4998259;28;20037;-78
2022/03/20 03:52:40;;;;;;;35.42;21.23;;;;;;;-146.84;100.00;65060.63;4996171;28;20036;-79
2022/03/20 03:55:06;;;;;;;33.38;19.77;;;;;;;-146.84;100.00;65060.63;5011418;28;20034;-78
2022/03/20 03:57:32;;;;;;;34.85;20.38;;;;;;;-146.84;100.00;65060.63;4994494;28;20467;-77
2022/03/20 03:59:58;;;;;;;37.47;21.65;;;;;;;-146.84;100.00;65060.63;5009182;28;20095;-78
2022/03/20 04:02:24;;;;;;;36.65;21.45;;;;;;;-146.84;100.00;65060.63;5010698;28;20034;-79
2022/03/20 04:04:49;;;;;;;37.65;22.20;;;;;;;-146.84;100.00;65060.63;5011055;28;20033;-79
2022/03/20 04:07:18;;;;;;;33.17;20.83;;;;;;;-146.84;100.00;65060.63;5005974;28;20087;-78
2022/03/20 04:09:45;;;;;;;38.65;20.55;;;;;;;-146.84;100.00;65060.63;5012101;28;20034;-76
2022/03/20 04:12:14;;;;;;;40.20;20.23;;;;;;;-146.84;100.00;65060.63;5013114;28;20022;-78
2022/03/20 04:14:41;;;;;;;35.90;20.40;;;;;;;-146.84;100.00;65060.63;4995127;28;20095;-78
2022/03/20 04:17:07;;;;;;;36.42;22.00;;;;;;;-146.84;100.00;65060.63;4992748;28;20050;-77
2022/03/20 04:19:32;;;;;;;34.72;20.80;;;;;;;-146.84;100.00;65060.63;4992661;28;20049;-78
2022/03/20 04:21:59;;;;;;;35.47;20.67;;;;;;;-146.84;100.00;65060.63;5011029;28;20030;-78
2022/03/20 04:24:25;;;;;;;34.30;21.15;;;;;;;-146.84;100.00;65060.63;5027769;28;20065;-78
2022/03/20 04:26:50;;;;;;;33.22;20.63;;;;;;;-146.84;100.00;65060.63;5017334;28;20498;-78
2022/03/20 04:29:16;;;;;;;35.33;21.23;;;;;;;-146.84;100.00;65060.63;4994433;28;20050;-78
2022/03/20 04:31:42;;;;;;;35.33;20.98;;;;;;;-146.84;100.00;65060.63;5006071;28;20041;-76
2022/03/20 04:34:07;;;;;;;35.42;21.63;;;;;;;-146.84;100.00;65060.63;5004617;28;20104;-78
2022/03/20 04:36:34;;;;;;;35.25;21.60;;;;;;;-146.84;100.00;65060.63;4995628;28;20033;-76
2022/03/20 04:39:01;;;;;;;33.08;20.42;;;;;;;-146.84;100.00;65060.63;4988394;28;20042;-77
2022/03/20 04:41:27;;;;;;;32.80;21.00;;;;;;;-146.84;100.00;65060.63;4996123;28;20049;-78
2022/03/20 04:43:53;;;;;;;36.90;21.63;;;;;;;-146.84;100.00;65060.63;5011615;28;20034;-78
2022/03/20 04:46:19;;;;;;;32.22;21.15;;;;;;;-146.84;100.00;65060.63;5012212;28;20042;-78
2022/03/20 04:59:44;;;;;;;34.28;21.08;;;;;;;-146.84;100.00;65060.63;4990044;28;20855;-77
2022/03/20 05:02:10;;;;;;;36.17;21.90;;;;;;;-146.84;100.00;65060.63;5009730;28;20500;-78
2022/03/20 05:04:37;;;;;;;36.22;21.23;;;;;;;-146.84;100.00;65060.63;5010447;28;20034;-77
2022/03/20 05:07:03;;;;;;;37.70;22.58;;;;;;;-146.84;100.00;65060.63;5027851;28;20608;-77
2022/03/20 05:15:08;;;;;;;36.20;21.25;;;;;;;-146.84;100.00;65060.63;5002558;28;20034;-77
2022/03/20 05:17:34;;;;;;;36.60;21.20;;;;;;;-146.84;100.00;65060.63;4991243;28;20033;-77
2022/03/20 05:20:00;;;;;;;35.63;21.27;;;;;;;-146.84;100.00;65060.63;5007055;28;20033;-79
2022/03/20 05:22:26;;;;;;;34.25;21.17;;;;;;;-146.84;100.00;65060.63;5008440;28;20053;-78
2022/03/20 05:24:53;;;;;;;36.95;21.15;;;;;;;-146.84;100.00;65060.63;5007073;28;20054;-76
2022/03/20 05:27:18;;;;;;;35.90;20.33;;;;;;;-146.84;100.00;65060.63;5008392;28;20119;-78
2022/03/20 05:29:44;;;;;;;34.55;20.45;;;;;;;-146.84;100.00;65060.63;4991988;28;20068;-77
2022/03/20 05:32:10;;;;;;;34.17;21.30;;;;;;;-146.84;100.00;65060.63;5006559;28;20029;-79
2022/03/20 05:34:37;;;;;;;35.85;21.20;;;;;;;-146.84;100.00;65060.63;4992732;28;20125;-78
2022/03/20 05:37:03;;;;;;;34.13;20.92;;;;;;;-146.84;100.00;65060.63;5011611;28;20104;-77
2022/03/20 05:39:29;;;;;;;34.25;20.48;;;;;;;-146.84;100.00;65060.63;5003527;28;20049;-80
2022/03/20 05:41:55;;;;;;;35.50;20.40;;;;;;;-146.84;100.00;65060.63;5013118;28;20065;-78
2022/03/20 05:44:23;;;;;;;37.85;20.50;;;;;;;-146.84;100.00;65060.63;5001505;28;20165;-79
2022/03/20 05:46:51;;;;;;;35.47;20.95;;;;;;;-146.84;100.00;65060.63;5015418;28;20038;-80
2022/03/20 05:49:22;;;;;;;34.90;21.25;;;;;;;-146.84;100.00;65060.63;5029438;28;20033;-80
2022/03/20 05:51:49;;;;;;;35.05;20.73;;;;;;;-146.84;100.00;65060.63;5046014;28;20060;-74
2022/03/20 05:54:16;;;;;;;32.92;20.08;;;;;;;-146.84;100.00;65060.63;5016619;28;20044;-77
2022/03/20 05:59:28;;;;;;;33.20;18.85;;;;;;;-146.84;100.00;65060.63;5030253;28;20042;-78
2022/03/20 06:01:54;;;;;;;36.97;19.73;;;;;;;-146.84;100.00;65060.63;5006201;28;20042;-77
2022/03/20 06:04:20;;;;;;;34.60;20.17;;;;;;;-146.84;100.00;65060.63;5024803;28;20076;-78
2022/03/20 06:06:48;;;;;;;34.38;19.65;;;;;;;-146.84;100.00;65060.63;5018002;28;20042;-76
2022/03/20 06:09:14;;;;;;;30.70;19.20;;;;;;;-146.84;100.00;65060.63;4997756;28;20030;-76
2022/03/20 06:11:41;;;;;;;33.75;19.63;;;;;;;-146.84;100.00;65060.63;4999499;28;20172;-76
2022/03/20 06:14:08;;;;;;;30.83;19.45;;;;;;;-146.84;100.00;65060.63;4998396;28;20048;-77
2022/03/20 06:16:34;;;;;;;36.03;20.25;;;;;;;-146.84;100.00;65060.63;4976203;28;20038;-77
2022/03/20 06:19:01;;;;;;;35.13;19.33;;;;;;;-146.84;100.00;65060.63;4994891;28;20115;-80
2022/03/20 06:21:27;;;;;;;30.92;19.45;;;;;;;-146.84;100.00;65060.63;4998651;28;20045;-75
2022/03/20 06:23:54;;;;;;;33.70;18.67;;;;;;;-146.84;100.00;65060.63;4998023;28;20041;-75
2022/03/20 06:26:20;;;;;;;31.75;19.13;;;;;;;-146.84;100.00;65060.63;4994721;28;20038;-77
2022/03/20 06:28:46;;;;;;;32.65;19.40;;;;;;;-146.84;100.00;65060.63;5016189;28;20098;-76
2022/03/20 06:31:13;;;;;;;27.00;17.95;;;;;;;-146.84;100.00;65060.63;5014915;28;20121;-77
2022/03/20 06:33:39;;;;;;;32.00;18.60;;;;;;;-146.84;100.00;65060.63;5008422;28;20489;-77
2022/03/20 06:36:06;;;;;;;29.05;17.25;;;;;;;-146.84;100.00;65060.63;5008238;28;20029;-76
2022/03/20 06:38:33;;;;;;;28.85;16.77;;;;;;;-146.84;100.00;65060.63;5014503;28;20030;-79
2022/03/20 06:40:59;;;;;;;26.83;17.50;;;;;;;-146.84;100.00;65060.63;4982814;28;20022;-77
2022/03/20 06:43:25;;;;;;;29.05;16.65;;;;;;;-146.84;100.00;65060.63;5014827;28;20076;-78
2022/03/20 06:45:53;;;;;;;26.63;16.60;;;;;;;-146.84;100.00;65060.63;5018299;28;20045;-77
2022/03/20 06:48:19;;;;;;;30.88;17.75;;;;;;;-146.84;100.00;65060.63;4981851;28;20037;-76
2022/03/20 06:50:45;;;;;;;26.42;16.42;;;;;;;-146.84;100.00;65060.63;4991828;28;20084;-78
2022/03/20 06:53:11;;;;;;;28.25;16.80;;;;;;;-146.84;100.00;65060.63;5009866;28;20400;-76
2022/03/20 06:55:38;;;;;;;29.48;16.20;;;;;;;-146.84;100.00;65060.63;4997957;28;20624;-76
2022/03/20 06:58:04;;;;;;;26.45;15.68;;;;;;;-146.84;100.00;65060.63;4987244;28;20040;-77
2022/03/20 07:00:31;;;;;;;28.58;16.63;;;;;;;-146.84;100.00;65060.63;5014779;28;20037;-74
2022/03/20 07:03:00;;;;;;;26.83;15.35;;;;;;;-146.84;100.00;65060.63;5008100;28;20049;-77
2022/03/20 07:05:26;;;;;;;27.92;16.40;;;;;;;-146.84;100.00;65060.63;5011712;28;20121;-74
2022/03/20 07:07:53;;;;;;;28.70;16.25;;;;;;;-146.84;100.00;65060.63;5027252;28;20033;-77
2022/03/20 07:10:24;;;;;;;29.55;16.08;;;;;;;-146.84;100.00;65060.63;5012581;28;20125;-76
2022/03/20 07:12:50;;;;;;;32.35;16.58;;;;;;;-146.84;100.00;65060.63;4986914;28;20038;-78
2022/03/20 07:15:19;;;;;;;27.38;16.27;;;;;;;-146.84;100.00;65060.63;5009274;28;20061;-77
2022/03/20 07:17:47;;;;;;;29.38;15.23;;;;;;;-146.84;100.00;65060.63;5003866;28;20038;-77
2022/03/20 07:20:16;;;;;;;24.83;14.20;;;;;;;-146.84;100.00;65060.63;5011072;28;20049;-76
2022/03/20 07:22:43;;;;;;;29.55;15.02;;;;;;;-146.84;100.00;65060.63;5011102;28;20484;-77
2022/03/20 07:30:40;;;;;;;27.95;14.20;;;;;;;-146.84;100.00;65060.63;4998322;28;20037;-79
2022/03/20 07:33:05;;;;;;;31.60;14.95;;;;;;;-146.84;100.00;65060.63;5010245;28;20033;-77
2022/03/20 07:35:32;;;;;;;28.83;14.90;;;;;;;-146.84;100.00;65060.63;5002806;28;20038;-76
2022/03/20 07:37:57;;;;;;;25.88;13.93;;;;;;;-146.84;100.00;65060.63;5010084;28;20061;-77
2022/03/20 07:40:23;;;;;;;23.42;13.77;;;;;;;-146.84;100.00;65060.63;4998073;28;20080;-76
2022/03/20 07:42:49;;;;;;;23.13;13.32;;;;;;;-146.84;100.00;65060.63;4976051;28;20149;-76
2022/03/20 07:45:14;;;;;;;23.27;14.15;;;;;;;-146.84;100.00;65060.63;5011456;28;20045;-77
2022/03/20 07:47:40;;;;;;;25.38;13.73;;;;;;;-146.84;100.00;65060.63;5018009;28;20033;-77
2022/03/20 07:50:08;;;;;;;26.98;14.25;;;;;;;-146.84;100.00;65060.63;4978253;28;20061;-76
2022/03/20 07:52:38;;;;;;;25.75;13.98;;;;;;;-146.84;100.00;65060.63;5022875;28;20510;-78
2022/03/20 07:55:04;;;;;;;25.00;13.25;;;;;;;-146.84;100.00;65060.63;5018918;28;20049;-75
2022/03/20 07:57:30;;;;;;;26.17;13.93;;;;;;;-146.84;100.00;65060.63;5012628;28;20054;-77
2022/03/20 07:59:56;;;;;;;25.75;14.80;;;;;;;-146.84;100.00;65060.63;5021749;28;20034;-78
2022/03/20 08:02:23;;;;;;;25.08;14.10;;;;;;;-146.84;100.00;65060.63;4990208;28;20404;-77
2022/03/20 08:04:51;;;;;;;31.02;14.88;;;;;;;-146.84;100.00;65060.63;4993792;28;20392;-77
2022/03/20 08:07:19;;;;;;;25.35;14.10;;;;;;;-146.84;100.00;65060.63;4992884;28;20037;-77
2022/03/20 08:09:45;;;;;;;25.67;13.50;;;;;;;-146.84;100.00;65060.63;4975216;28;20065;-76
2022/03/20 08:12:11;;;;;;;29.85;15.50;;;;;;;-146.84;100.00;65060.63;5011938;28;20038;-80
2022/03/20 08:14:37;;;;;;;28.38;14.55;;;;;;;-146.84;100.00;65060.63;5011075;28;20034;-77
2022/03/20 08:17:06;;;;;;;29.02;15.75;;;;;;;-146.84;100.00;65060.63;4973654;28;20120;-76
2022/03/20 08:19:32;;;;;;;31.05;15.15;;;;;;;-146.84;100.00;65060.63;4995695;28;20034;-77
2022/03/20 08:21:59;;;;;;;28.55;14.68;;;;;;;-146.84;100.00;65060.63;5001688;28;21327;-77
2022/03/20 08:24:25;;;;;;;28.15;14.48;;;;;;;-146.84;100.00;65060.63;5019625;28;20080;-78
2022/03/20 08:26:51;;;;;;;30.45;15.35;;;;;;;-146.84;100.00;65060.63;4975732;28;20041;-81
2022/03/20 08:29:16;;;;;;;25.58;14.98;;;;;;;-146.84;100.00;65060.63;4993777;28;20029;-77
2022/03/20 08:31:47;;;;;;;28.17;15.02;;;;;;;-146.84;100.00;65060.63;4976152;28;20038;-79
2022/03/20 08:34:15;;;;;;;28.52;15.18;;;;;;;-146.84;100.00;65060.63;5000447;28;20137;-81
2022/03/20 08:36:44;;;;;;;26.95;15.55;;;;;;;-146.84;100.00;65060.63;5007078;28;20172;-82
2022/03/20 08:39:10;;;;;;;24.88;14.68;;;;;;;-146.84;100.00;65060.63;5010082;28;20053;-82
2022/03/20 08:41:36;;;;;;;27.80;14.85;;;;;;;-146.84;100.00;65060.63;4994884;28;20503;-79
2022/03/20 08:44:04;;;;;;;26.38;14.68;;;;;;;-146.84;100.00;65060.63;5027439;28;20490;-78
2022/03/20 08:46:34;;;;;;;29.23;15.45;;;;;;;-146.84;100.00;65060.63;5025069;28;20038;-76
2022/03/20 08:49:05;;;;;;;25.63;14.90;;;;;;;-146.84;100.00;65060.63;5010383;28;20066;-78
2022/03/20 08:51:32;;;;;;;28.45;15.13;;;;;;;-146.84;100.00;65060.63;4995121;28;20785;-79
2022/03/20 08:53:58;;;;;;;37.10;15.57;;;;;;;-146.84;100.00;65060.63;4990600;28;20105;-79
2022/03/20 08:56:23;;;;;;;28.08;14.73;;;;;;;-146.84;100.00;65060.63;5010969;28;20041;-77
2022/03/20 08:58:51;;;;;;;31.38;16.23;;;;;;;-146.84;100.00;65060.63;5020478;28;20443;-78
2022/03/20 09:01:17;;;;;;;29.10;16.40;;;;;;;-146.84;100.00;65060.63;5011296;28;20041;-80
2022/03/20 09:03:44;;;;;;;27.30;15.60;;;;;;;-146.84;100.00;65060.63;4992655;28;20038;-78
2022/03/20 09:06:10;;;;;;;29.17;16.67;;;;;;;-146.84;100.00;65060.63;5007017;28;20048;-79
2022/03/20 09:08:36;;;;;;;27.52;14.82;;;;;;;-146.84;100.00;65060.63;4999351;28;20042;-79
2022/03/20 09:11:02;;;;;;;25.58;15.27;;;;;;;-146.84;100.00;65060.63;4999578;28;20083;-77
2022/03/20 09:13:28;;;;;;;33.58;16.48;;;;;;;-146.84;100.00;65060.63;5027659;28;20034;-80
2022/03/20 09:19:11;;;;;;;29.20;15.35;;;;;;;-146.84;100.00;65060.63;5015014;28;20415;-78
2022/03/20 09:21:34;;;;;;;24.38;15.52;;;;;;;-146.84;100.00;65060.63;5000314;28;20416;-80
2022/03/20 09:24:00;;;;;;;27.17;15.43;;;;;;;-146.84;100.00;65060.63;5012206;28;20041;-79
2022/03/20 09:26:27;;;;;;;27.65;15.88;;;;;;;-146.84;100.00;65060.63;4984104;28;20050;-77
2022/03/20 09:28:52;;;;;;;32.13;15.90;;;;;;;-146.84;100.00;65060.63;5012672;28;20629;-81
2022/03/20 09:31:19;;;;;;;25.73;15.75;;;;;;;-146.84;100.00;65060.63;4996036;28;20069;-78
2022/03/20 09:33:44;;;;;;;26.90;16.75;;;;;;;-146.84;100.00;65060.63;5012962;28;20129;-78
2022/03/20 09:36:10;;;;;;;31.83;16.25;;;;;;;-146.84;100.00;65060.63;4995837;28;20129;-78
2022/03/20 09:38:37;;;;;;;29.67;15.88;;;;;;;-146.84;100.00;65060.63;5023343;28;20045;-78
2022/03/20 09:41:07;;;;;;;29.95;16.65;;;;;;;-146.84;100.00;65060.63;4995682;28;20061;-76
2022/03/20 09:43:44;;;;;;;31.50;15.93;;;;;;;-146.84;100.00;65060.63;4991794;28;20137;-80
2022/03/20 09:46:09;;;;;;;27.08;15.77;;;;;;;-146.84;100.00;65060.63;5006697;28;20140;-80
2022/03/20 09:48:35;;;;;;;28.73;16.77;;;;;;;-146.84;100.00;65060.63;5008140;28;20547;-80
2022/03/20 09:51:03;;;;;;;30.23;16.38;;;;;;;-146.84;100.00;65060.63;4994938;28;20468;-80
2022/03/20 09:53:29;;;;;;;26.85;16.58;;;;;;;-146.84;100.00;65060.63;4997987;28;20476;-78
2022/03/20 09:55:57;;;;;;;28.25;16.27;;;;;;;-146.84;100.00;65060.63;5005088;28;20129;-79
2022/03/20 09:58:25;;;;;;;31.58;17.08;;;;;;;-146.84;100.00;65060.63;4998666;28;20038;-81
2022/03/20 10:00:51;;;;;;;26.73;16.70;;;;;;;-146.84;100.00;65060.63;5006483;28;20037;-80
2022/03/20 10:03:18;;;;;;;30.52;16.00;;;;;;;-146.84;100.00;65060.63;5003109;28;20113;-79
2022/03/20 10:06:16;;;;;;;27.92;16.08;;;;;;;-146.84;100.00;65060.63;5014643;28;20092;-78
2022/03/20 10:08:56;;;;;;;27.85;16.65;;;;;;;-146.84;100.00;65060.63;4992452;28;20039;-78
2022/03/20 10:11:24;;;;;;;24.85;15.65;;;;;;;-146.84;100.00;65060.63;4988562;28;20053;-78
2022/03/20 10:14:07;;;;;;;31.25;17.80;;;;;;;-146.84;100.00;65060.63;5016039;28;20033;-77
2022/03/20 10:16:37;;;;;;;29.40;16.65;;;;;;;-146.84;100.00;65060.63;4973999;28;20034;-77
2022/03/20 10:19:23;;;;;;;28.00;17.50;;;;;;;-146.84;100.00;65060.63;5006262;28;20097;-77
2022/03/20 10:21:56;;;;;;;30.65;17.00;;;;;;;-146.84;100.00;65060.63;4995659;28;20072;-79
2022/03/20 10:24:24;;;;;;;28.42;18.35;;;;;;;-146.84;100.00;65060.63;5011464;28;20057;-80
2022/03/20 10:27:02;;;;;;;26.98;15.77;;;;;;;-146.84;100.00;65060.63;4993832;28;20057;-81
2022/03/20 10:29:30;;;;;;;27.60;16.00;;;;;;;-146.84;100.00;65060.63;4978985;28;20128;-79
2022/03/20 10:32:07;;;;;;;28.98;16.65;;;;;;;-146.84;100.00;65060.63;4972763;28;20046;-77
2022/03/20 10:34:49;;;;;;;31.02;17.73;;;;;;;-146.84;100.00;65060.63;4972906;28;20053;-80
2022/03/20 10:37:17;;;;;;;36.15;18.77;;;;;;;-146.84;100.00;65060.63;5009788;28;20041;-79
2022/03/20 10:39:44;;;;;;;28.67;16.33;;;;;;;-146.84;100.00;65060.63;5026205;28;20037;-79
2022/03/20 10:42:14;;;;;;;27.15;15.90;;;;;;;-146.84;100.00;65060.63;4982152;28;20029;-79
2022/03/20 10:44:41;;;;;;;26.70;15.57;;;;;;;-146.84;100.00;65060.63;5011376;28;20542;-79
2022/03/20 10:47:16;;;;;;;29.10;16.38;;;;;;;-146.84;100.00;65060.63;5006683;28;20116;-78
2022/03/20 10:49:47;;;;;;;29.42;16.23;;;;;;;-146.84;100.00;65060.63;4993199;28;20038;-81
2022/03/20 10:52:19;;;;;;;25.05;15.43;;;;;;;-146.84;100.00;65060.63;4998388;28;20037;-79
2022/03/20 10:54:53;;;;;;;28.13;16.60;;;;;;;-146.84;100.00;65060.63;4999433;28;20083;-79
2022/03/20 10:57:20;;;;;;;29.17;15.90;;;;;;;-146.84;100.00;65060.63;5012925;28;20034;-79
2022/03/20 11:00:02;;;;;;;28.70;15.65;;;;;;;-146.84;100.00;65060.63;4982753;28;20033;-79
2022/03/20 11:02:28;;;;;;;27.67;15.93;;;;;;;-146.84;100.00;65060.63;5006394;28;20041;-80
2022/03/20 11:04:54;;;;;;;26.73;16.35;;;;;;;-146.84;100.00;65060.63;5008782;28;20440;-74
2022/03/20 11:07:21;;;;;;;27.30;16.15;;;;;;;-146.84;100.00;65060.63;5013935;28;20484;-79
2022/03/20 11:09:53;;;;;;;26.13;15.98;;;;;;;-146.84;100.00;65060.63;4989641;28;20456;-79
2022/03/20 11:12:24;;;;;;;28.13;16.10;;;;;;;-146.84;100.00;65060.63;4986980;28;20377;-79
2022/03/20 11:14:49;;;;;;;29.45;17.10;;;;;;;-146.84;100.00;65060.63;4987526;28;20489;-81
2022/03/20 11:17:19;;;;;;;39.67;18.60;;;;;;;-146.84;100.00;65060.63;4992497;28;20034;-83
2022/03/20 11:19:54;;;;;;;30.35;17.10;;;;;;;-146.84;100.00;65060.63;5011162;28;20034;-79
2022/03/20 11:22:21;;;;;;;26.85;15.98;;;;;;;-146.84;100.00;65060.63;5012735;28;20034;-80
2022/03/20 11:24:50;;;;;;;29.77;16.25;;;;;;;-146.84;100.00;65060.63;4996382;28;20072;-79
2022/03/20 11:27:23;;;;;;;29.38;16.73;;;;;;;-146.84;100.00;65060.63;4989875;28;20030;-79
2022/03/20 11:29:51;;;;;;;33.08;16.52;;;;;;;-146.84;100.00;65060.63;4983377;28;20029;-81
2022/03/20 11:32:18;;;;;;;26.70;17.15;;;;;;;-146.84;100.00;65060.63;5011820;28;20037;-80